sensor_id;sensor_type;location;lat;lon;timestamp;pressure;altitude;pressure_sealevel;temperature;humidity
57668;BME280;43499;52.366;12.912;2024-01-30T00:00:36;102582.78;;;4.42;69.89
57668;BME280;43499;52.366;12.912;2024-01-30T00:01:37;102586.66;;;4.39;69.97
57668;BME280;43499;52.366;12.912;2024-01-30T00:02:38;102589.34;;;4.33;70.26
57668;BME280;43499;52.366;12.912;2024-01-30T00:03:39;102579.56;;;4.25;70.48
57668;BME280;43499;52.366;12.912;2024-01-30T00:04:40;102591.53;;;4.30;70.42
57668;BME280;43499;52.366;12.912;2024-01-30T00:05:41;102597.22;;;4.14;70.66
57668;BME280;43499;52.366;12.912;2024-01-30T00:06:43;102556.84;;;4.11;70.77
57668;BME280;43499;52.366;12.912;2024-01-30T00:07:44;102589.13;;;4.31;70.38
57668;BME280;43499;52.366;12.912;2024-01-30T00:08:45;102589.47;;;4.27;70.52
57668;BME280;43499;52.366;12.912;2024-01-30T00:09:49;102586.72;;;4.20;70.46
57668;BME280;43499;52.366;12.912;2024-01-30T00:10:50;102578.72;;;4.19;71.11
57668;BME280;43499;52.366;12.912;2024-01-30T00:11:51;102590.38;;;4.28;71.47
57668;BME280;43499;52.366;12.912;2024-01-30T00:12:52;102584.97;;;4.13;71.79
57668;BME280;43499;52.366;12.912;2024-01-30T00:13:53;102586.09;;;4.15;72.16
57668;BME280;43499;52.366;12.912;2024-01-30T00:14:55;102571.34;;;4.22;71.82
57668;BME280;43499;52.366;12.912;2024-01-30T00:15:56;102586.03;;;4.34;71.21
57668;BME280;43499;52.366;12.912;2024-01-30T00:16:57;102571.22;;;4.14;71.18
57668;BME280;43499;52.366;12.912;2024-01-30T00:17:58;102588.94;;;4.30;71.04
57668;BME280;43499;52.366;12.912;2024-01-30T00:18:59;102578.72;;;4.19;71.65
57668;BME280;43499;52.366;12.912;2024-01-30T00:20:03;102591.34;;;4.28;71.85
57668;BME280;43499;52.366;12.912;2024-01-30T00:21:06;102587.59;;;4.26;71.62
57668;BME280;43499;52.366;12.912;2024-01-30T00:22:07;102582.06;;;4.30;71.54
57668;BME280;43499;52.366;12.912;2024-01-30T00:23:08;102588.22;;;4.18;71.83
57668;BME280;43499;52.366;12.912;2024-01-30T00:24:09;102575.69;;;4.15;71.54
57668;BME280;43499;52.366;12.912;2024-01-30T00:25:10;102571.25;;;4.27;71.56
57668;BME280;43499;52.366;12.912;2024-01-30T00:26:12;102579.47;;;4.30;71.25
57668;BME280;43499;52.366;12.912;2024-01-30T00:27:13;102579.25;;;4.29;71.12
57668;BME280;43499;52.366;12.912;2024-01-30T00:28:14;102569.69;;;4.35;70.63
57668;BME280;43499;52.366;12.912;2024-01-30T00:29:15;102568.19;;;4.37;70.15
57668;BME280;43499;52.366;12.912;2024-01-30T00:30:20;102577.25;;;4.33;70.94
57668;BME280;43499;52.366;12.912;2024-01-30T00:31:21;102565.94;;;4.33;71.06
57668;BME280;43499;52.366;12.912;2024-01-30T00:32:22;102569.44;;;4.33;71.19
57668;BME280;43499;52.366;12.912;2024-01-30T00:33:24;102550.81;;;4.17;71.49
57668;BME280;43499;52.366;12.912;2024-01-30T00:34:25;102557.25;;;4.27;71.14
57668;BME280;43499;52.366;12.912;2024-01-30T00:35:26;102557.38;;;4.21;71.37
57668;BME280;43499;52.366;12.912;2024-01-30T00:36:27;102552.69;;;4.19;71.64
57668;BME280;43499;52.366;12.912;2024-01-30T00:37:31;102553.84;;;4.21;71.31
57668;BME280;43499;52.366;12.912;2024-01-30T00:38:32;102562.28;;;4.25;71.41
57668;BME280;43499;52.366;12.912;2024-01-30T00:39:33;102572.16;;;4.28;71.78
57668;BME280;43499;52.366;12.912;2024-01-30T00:40:34;102562.06;;;4.37;71.70
57668;BME280;43499;52.366;12.912;2024-01-30T00:41:35;102565.50;;;4.43;71.11
57668;BME280;43499;52.366;12.912;2024-01-30T00:42:36;102561.56;;;4.26;71.74
57668;BME280;43499;52.366;12.912;2024-01-30T00:43:37;102565.81;;;4.26;72.02
57668;BME280;43499;52.366;12.912;2024-01-30T00:44:38;102547.78;;;4.14;71.46
57668;BME280;43499;52.366;12.912;2024-01-30T00:45:39;102565.31;;;4.28;71.11
57668;BME280;43499;52.366;12.912;2024-01-30T00:46:40;102562.69;;;4.41;70.66
57668;BME280;43499;52.366;12.912;2024-01-30T00:47:42;102560.31;;;4.43;71.10
57668;BME280;43499;52.366;12.912;2024-01-30T00:48:43;102571.75;;;4.38;70.57
57668;BME280;43499;52.366;12.912;2024-01-30T00:49:44;102545.28;;;4.35;70.68
57668;BME280;43499;52.366;12.912;2024-01-30T00:50:45;102537.19;;;4.39;70.40
57668;BME280;43499;52.366;12.912;2024-01-30T00:51:46;102551.97;;;4.45;70.79
57668;BME280;43499;52.366;12.912;2024-01-30T00:52:47;102561.31;;;4.51;70.42
57668;BME280;43499;52.366;12.912;2024-01-30T00:53:48;102555.09;;;4.43;70.73
57668;BME280;43499;52.366;12.912;2024-01-30T00:54:49;102557.16;;;4.45;70.55
57668;BME280;43499;52.366;12.912;2024-01-30T00:55:50;102561.88;;;4.35;71.19
57668;BME280;43499;52.366;12.912;2024-01-30T00:56:51;102543.97;;;4.18;71.84
57668;BME280;43499;52.366;12.912;2024-01-30T00:57:52;102556.44;;;4.21;71.88
57668;BME280;43499;52.366;12.912;2024-01-30T00:58:53;102547.50;;;4.19;71.99
57668;BME280;43499;52.366;12.912;2024-01-30T00:59:54;102546.13;;;4.15;72.17
57668;BME280;43499;52.366;12.912;2024-01-30T01:00:55;102558.75;;;4.25;71.41
57668;BME280;43499;52.366;12.912;2024-01-30T01:01:56;102557.69;;;4.30;71.28
57668;BME280;43499;52.366;12.912;2024-01-30T01:03:01;102551.56;;;4.29;71.79
57668;BME280;43499;52.366;12.912;2024-01-30T01:04:02;102560.19;;;4.36;71.68
57668;BME280;43499;52.366;12.912;2024-01-30T01:05:03;102560.00;;;4.34;72.00
57668;BME280;43499;52.366;12.912;2024-01-30T01:06:05;102537.38;;;4.14;72.16
57668;BME280;43499;52.366;12.912;2024-01-30T01:07:06;102554.88;;;4.28;72.33
57668;BME280;43499;52.366;12.912;2024-01-30T01:08:07;102567.81;;;4.34;71.82
57668;BME280;43499;52.366;12.912;2024-01-30T01:09:13;102564.25;;;4.33;71.90
57668;BME280;43499;52.366;12.912;2024-01-30T01:10:14;102558.63;;;4.17;71.91
57668;BME280;43499;52.366;12.912;2024-01-30T01:11:16;102568.31;;;4.19;71.95
57668;BME280;43499;52.366;12.912;2024-01-30T01:12:17;102566.66;;;4.32;71.50
57668;BME280;43499;52.366;12.912;2024-01-30T01:13:18;102569.88;;;4.37;71.35
57668;BME280;43499;52.366;12.912;2024-01-30T01:14:19;102560.72;;;4.33;71.61
57668;BME280;43499;52.366;12.912;2024-01-30T01:15:20;102562.78;;;4.36;71.43
57668;BME280;43499;52.366;12.912;2024-01-30T01:16:21;102554.03;;;4.22;71.28
57668;BME280;43499;52.366;12.912;2024-01-30T01:17:22;102568.63;;;4.40;71.33
57668;BME280;43499;52.366;12.912;2024-01-30T01:18:23;102557.59;;;4.36;70.79
57668;BME280;43499;52.366;12.912;2024-01-30T01:19:24;102564.97;;;4.45;70.80
57668;BME280;43499;52.366;12.912;2024-01-30T01:20:25;102560.69;;;4.46;70.95
57668;BME280;43499;52.366;12.912;2024-01-30T01:21:27;102561.53;;;4.52;70.57
57668;BME280;43499;52.366;12.912;2024-01-30T01:22:28;102561.22;;;4.43;71.00
57668;BME280;43499;52.366;12.912;2024-01-30T01:23:29;102559.06;;;4.46;70.83
57668;BME280;43499;52.366;12.912;2024-01-30T01:24:31;102572.66;;;4.38;70.39
57668;BME280;43499;52.366;12.912;2024-01-30T01:25:32;102574.25;;;4.43;70.49
57668;BME280;43499;52.366;12.912;2024-01-30T01:26:33;102568.41;;;4.39;70.32
57668;BME280;43499;52.366;12.912;2024-01-30T01:27:34;102554.97;;;4.36;70.38
57668;BME280;43499;52.366;12.912;2024-01-30T01:28:41;102568.84;;;4.42;70.56
57668;BME280;43499;52.366;12.912;2024-01-30T01:29:42;102555.38;;;4.26;70.91
57668;BME280;43499;52.366;12.912;2024-01-30T01:30:43;102553.34;;;4.36;71.13
57668;BME280;43499;52.366;12.912;2024-01-30T01:31:44;102555.81;;;4.42;71.00
57668;BME280;43499;52.366;12.912;2024-01-30T01:32:49;102562.47;;;4.53;70.27
57668;BME280;43499;52.366;12.912;2024-01-30T01:33:57;102554.16;;;4.42;70.22
57668;BME280;43499;52.366;12.912;2024-01-30T01:34:58;102543.94;;;4.44;69.46
57668;BME280;43499;52.366;12.912;2024-01-30T01:36:00;102557.47;;;4.41;69.50
57668;BME280;43499;52.366;12.912;2024-01-30T01:37:03;102550.50;;;4.35;69.68
57668;BME280;43499;52.366;12.912;2024-01-30T01:38:04;102553.00;;;4.27;69.87
57668;BME280;43499;52.366;12.912;2024-01-30T01:39:05;102553.09;;;4.35;69.56
57668;BME280;43499;52.366;12.912;2024-01-30T01:40:07;102559.34;;;4.42;69.20
57668;BME280;43499;52.366;12.912;2024-01-30T01:41:08;102553.63;;;4.32;69.38
57668;BME280;43499;52.366;12.912;2024-01-30T01:42:09;102548.34;;;4.25;69.50
57668;BME280;43499;52.366;12.912;2024-01-30T01:43:10;102554.69;;;4.40;69.50
57668;BME280;43499;52.366;12.912;2024-01-30T01:44:11;102551.97;;;4.45;69.54
57668;BME280;43499;52.366;12.912;2024-01-30T01:45:12;102549.38;;;4.45;69.08
57668;BME280;43499;52.366;12.912;2024-01-30T01:46:13;102554.56;;;4.45;69.32
57668;BME280;43499;52.366;12.912;2024-01-30T01:47:15;102558.44;;;4.42;69.68
57668;BME280;43499;52.366;12.912;2024-01-30T01:48:16;102553.94;;;4.41;70.02
57668;BME280;43499;52.366;12.912;2024-01-30T01:49:17;102562.50;;;4.40;70.41
57668;BME280;43499;52.366;12.912;2024-01-30T01:50:20;102560.72;;;4.33;70.80
57668;BME280;43499;52.366;12.912;2024-01-30T01:51:23;102560.06;;;4.41;70.49
57668;BME280;43499;52.366;12.912;2024-01-30T01:52:25;102554.88;;;4.41;70.41
57668;BME280;43499;52.366;12.912;2024-01-30T01:53:26;102550.91;;;4.38;70.72
57668;BME280;43499;52.366;12.912;2024-01-30T01:54:28;102568.94;;;4.36;71.13
57668;BME280;43499;52.366;12.912;2024-01-30T01:55:30;102577.38;;;4.41;71.09
57668;BME280;43499;52.366;12.912;2024-01-30T01:56:33;102575.69;;;4.41;71.37
57668;BME280;43499;52.366;12.912;2024-01-30T01:57:35;102559.13;;;4.28;72.06
57668;BME280;43499;52.366;12.912;2024-01-30T01:58:36;102566.56;;;4.25;72.06
57668;BME280;43499;52.366;12.912;2024-01-30T01:59:38;102569.06;;;4.30;71.85
57668;BME280;43499;52.366;12.912;2024-01-30T02:00:39;102565.41;;;4.23;72.16
57668;BME280;43499;52.366;12.912;2024-01-30T02:01:42;102558.53;;;4.23;72.12
57668;BME280;43499;52.366;12.912;2024-01-30T02:02:45;102561.88;;;4.35;72.29
57668;BME280;43499;52.366;12.912;2024-01-30T02:03:47;102569.16;;;4.25;72.24
57668;BME280;43499;52.366;12.912;2024-01-30T02:04:48;102574.56;;;4.26;71.62
57668;BME280;43499;52.366;12.912;2024-01-30T02:05:51;102566.84;;;4.33;71.04
57668;BME280;43499;52.366;12.912;2024-01-30T02:06:52;102571.66;;;4.43;71.25
57668;BME280;43499;52.366;12.912;2024-01-30T02:07:54;102543.66;;;4.35;70.60
57668;BME280;43499;52.366;12.912;2024-01-30T02:08:55;102572.66;;;4.38;71.00
57668;BME280;43499;52.366;12.912;2024-01-30T02:09:56;102561.75;;;4.28;70.76
57668;BME280;43499;52.366;12.912;2024-01-30T02:10:57;102563.75;;;4.36;70.42
57668;BME280;43499;52.366;12.912;2024-01-30T02:11:58;102565.19;;;4.47;70.24
57668;BME280;43499;52.366;12.912;2024-01-30T02:12:59;102571.97;;;4.52;70.19
57668;BME280;43499;52.366;12.912;2024-01-30T02:14:04;102560.47;;;4.57;69.82
57668;BME280;43499;52.366;12.912;2024-01-30T02:15:05;102562.25;;;4.64;69.83
57668;BME280;43499;52.366;12.912;2024-01-30T02:16:07;102561.81;;;4.61;69.80
57668;BME280;43499;52.366;12.912;2024-01-30T02:17:08;102565.81;;;4.65;69.72
57668;BME280;43499;52.366;12.912;2024-01-30T02:18:09;102562.16;;;4.57;69.75
57668;BME280;43499;52.366;12.912;2024-01-30T02:19:11;102566.09;;;4.60;69.79
57668;BME280;43499;52.366;12.912;2024-01-30T02:20:12;102566.84;;;4.59;69.49
57668;BME280;43499;52.366;12.912;2024-01-30T02:21:15;102566.03;;;4.53;69.67
57668;BME280;43499;52.366;12.912;2024-01-30T02:22:17;102547.78;;;4.53;69.38
57668;BME280;43499;52.366;12.912;2024-01-30T02:23:19;102539.88;;;4.46;69.43
57668;BME280;43499;52.366;12.912;2024-01-30T02:24:20;102564.44;;;4.61;69.50
57668;BME280;43499;52.366;12.912;2024-01-30T02:25:30;102562.06;;;4.62;69.58
57668;BME280;43499;52.366;12.912;2024-01-30T02:26:31;102556.94;;;4.57;69.47
57668;BME280;43499;52.366;12.912;2024-01-30T02:27:32;102563.31;;;4.59;69.25
57668;BME280;43499;52.366;12.912;2024-01-30T02:28:33;102551.63;;;4.50;69.28
57668;BME280;43499;52.366;12.912;2024-01-30T02:29:34;102562.47;;;4.53;69.46
57668;BME280;43499;52.366;12.912;2024-01-30T02:30:35;102563.91;;;4.51;69.35
57668;BME280;43499;52.366;12.912;2024-01-30T02:31:36;102554.75;;;4.47;69.27
57668;BME280;43499;52.366;12.912;2024-01-30T02:32:37;102561.31;;;4.51;69.75
57668;BME280;43499;52.366;12.912;2024-01-30T02:33:38;102558.53;;;4.49;69.43
57668;BME280;43499;52.366;12.912;2024-01-30T02:34:40;102564.34;;;4.54;69.50
57668;BME280;43499;52.366;12.912;2024-01-30T02:35:41;102553.00;;;4.40;69.85
57668;BME280;43499;52.366;12.912;2024-01-30T02:36:42;102563.75;;;4.36;69.85
57668;BME280;43499;52.366;12.912;2024-01-30T02:37:43;102565.50;;;4.30;70.76
57668;BME280;43499;52.366;12.912;2024-01-30T02:38:44;102555.72;;;4.22;70.82
57668;BME280;43499;52.366;12.912;2024-01-30T02:39:47;102556.84;;;4.37;70.71
57668;BME280;43499;52.366;12.912;2024-01-30T02:40:48;102537.06;;;4.19;70.97
57668;BME280;43499;52.366;12.912;2024-01-30T02:41:49;102561.25;;;4.30;71.08
57668;BME280;43499;52.366;12.912;2024-01-30T02:42:50;102542.25;;;4.31;70.75
57668;BME280;43499;52.366;12.912;2024-01-30T02:43:51;102554.56;;;4.20;71.48
57668;BME280;43499;52.366;12.912;2024-01-30T02:44:52;102544.59;;;4.23;71.78
57668;BME280;43499;52.366;12.912;2024-01-30T02:45:53;102547.78;;;4.01;71.99
57668;BME280;43499;52.366;12.912;2024-01-30T02:46:54;102538.53;;;3.91;72.53
57668;BME280;43499;52.366;12.912;2024-01-30T02:47:55;102542.97;;;3.92;72.89
57668;BME280;43499;52.366;12.912;2024-01-30T02:48:56;102560.50;;;4.06;73.03
57668;BME280;43499;52.366;12.912;2024-01-30T02:49:57;102552.78;;;4.00;73.06
57668;BME280;43499;52.366;12.912;2024-01-30T02:50:58;102561.72;;;3.89;73.46
57668;BME280;43499;52.366;12.912;2024-01-30T02:51:59;102561.84;;;3.96;73.46
57668;BME280;43499;52.366;12.912;2024-01-30T02:53:01;102557.56;;;3.97;73.36
57668;BME280;43499;52.366;12.912;2024-01-30T02:54:02;102560.59;;;4.00;72.70
57668;BME280;43499;52.366;12.912;2024-01-30T02:55:03;102554.25;;;3.85;73.30
57668;BME280;43499;52.366;12.912;2024-01-30T02:56:04;102562.69;;;4.03;73.28
57668;BME280;43499;52.366;12.912;2024-01-30T02:57:06;102557.03;;;3.86;73.15
57668;BME280;43499;52.366;12.912;2024-01-30T02:58:07;102559.84;;;3.88;73.10
57668;BME280;43499;52.366;12.912;2024-01-30T02:59:08;102559.03;;;3.95;73.05
57668;BME280;43499;52.366;12.912;2024-01-30T03:00:10;102553.81;;;3.95;73.19
57668;BME280;43499;52.366;12.912;2024-01-30T03:01:11;102560.69;;;3.94;73.18
57668;BME280;43499;52.366;12.912;2024-01-30T03:02:12;102555.41;;;4.00;73.16
57668;BME280;43499;52.366;12.912;2024-01-30T03:03:13;102555.25;;;3.93;73.12
57668;BME280;43499;52.366;12.912;2024-01-30T03:04:14;102547.59;;;4.00;72.58
57668;BME280;43499;52.366;12.912;2024-01-30T03:05:15;102555.31;;;4.06;72.29
57668;BME280;43499;52.366;12.912;2024-01-30T03:06:16;102552.78;;;4.00;72.55
57668;BME280;43499;52.366;12.912;2024-01-30T03:07:18;102546.63;;;3.86;72.95
57668;BME280;43499;52.366;12.912;2024-01-30T03:08:19;102545.47;;;3.97;72.81
57668;BME280;43499;52.366;12.912;2024-01-30T03:09:20;102552.47;;;4.04;72.77
57668;BME280;43499;52.366;12.912;2024-01-30T03:10:21;102550.09;;;4.06;72.58
57668;BME280;43499;52.366;12.912;2024-01-30T03:11:22;102538.34;;;4.02;72.65
57668;BME280;43499;52.366;12.912;2024-01-30T03:12:23;102545.91;;;4.00;72.77
57668;BME280;43499;52.366;12.912;2024-01-30T03:13:24;102545.81;;;3.93;72.99
57668;BME280;43499;52.366;12.912;2024-01-30T03:14:25;102524.78;;;3.92;73.26
57668;BME280;43499;52.366;12.912;2024-01-30T03:15:27;102537.38;;;4.01;73.24
57668;BME280;43499;52.366;12.912;2024-01-30T03:16:28;102532.91;;;4.00;72.79
57668;BME280;43499;52.366;12.912;2024-01-30T03:17:29;102531.03;;;3.99;73.21
57668;BME280;43499;52.366;12.912;2024-01-30T03:18:30;102539.25;;;4.03;73.02
57668;BME280;43499;52.366;12.912;2024-01-30T03:19:31;102534.59;;;4.00;73.23
57668;BME280;43499;52.366;12.912;2024-01-30T03:20:32;102529.69;;;3.96;72.66
57668;BME280;43499;52.366;12.912;2024-01-30T03:21:33;102537.47;;;3.96;73.13
57668;BME280;43499;52.366;12.912;2024-01-30T03:22:34;102524.91;;;3.99;73.59
57668;BME280;43499;52.366;12.912;2024-01-30T03:23:35;102511.25;;;3.81;73.68
57668;BME280;43499;52.366;12.912;2024-01-30T03:24:36;102531.94;;;3.87;73.80
57668;BME280;43499;52.366;12.912;2024-01-30T03:25:37;102522.78;;;3.83;74.05
57668;BME280;43499;52.366;12.912;2024-01-30T03:26:38;102530.09;;;3.99;74.27
57668;BME280;43499;52.366;12.912;2024-01-30T03:27:39;102512.72;;;3.92;74.12
57668;BME280;43499;52.366;12.912;2024-01-30T03:28:40;102525.72;;;4.05;73.35
57668;BME280;43499;52.366;12.912;2024-01-30T03:29:41;102519.16;;;4.01;73.56
57668;BME280;43499;52.366;12.912;2024-01-30T03:30:42;102530.44;;;4.08;73.59
57668;BME280;43499;52.366;12.912;2024-01-30T03:31:43;102521.78;;;4.01;73.86
57668;BME280;43499;52.366;12.912;2024-01-30T03:32:44;102543.63;;;4.09;73.98
57668;BME280;43499;52.366;12.912;2024-01-30T03:33:46;102534.78;;;4.01;74.03
57668;BME280;43499;52.366;12.912;2024-01-30T03:34:47;102528.53;;;3.94;74.04
57668;BME280;43499;52.366;12.912;2024-01-30T03:35:48;102526.25;;;4.03;73.70
57668;BME280;43499;52.366;12.912;2024-01-30T03:36:49;102534.97;;;4.03;73.33
57668;BME280;43499;52.366;12.912;2024-01-30T03:37:50;102530.63;;;4.09;73.37
57668;BME280;43499;52.366;12.912;2024-01-30T03:38:51;102519.06;;;4.07;73.20
57668;BME280;43499;52.366;12.912;2024-01-30T03:39:52;102527.28;;;3.97;73.44
57668;BME280;43499;52.366;12.912;2024-01-30T03:40:53;102529.25;;;3.93;73.21
57668;BME280;43499;52.366;12.912;2024-01-30T03:41:54;102523.56;;;3.95;73.29
57668;BME280;43499;52.366;12.912;2024-01-30T03:42:55;102512.19;;;3.82;73.22
57668;BME280;43499;52.366;12.912;2024-01-30T03:43:56;102516.88;;;3.84;73.37
57668;BME280;43499;52.366;12.912;2024-01-30T03:44:57;102530.53;;;4.02;73.40
57668;BME280;43499;52.366;12.912;2024-01-30T03:45:59;102523.44;;;4.01;73.11
57668;BME280;43499;52.366;12.912;2024-01-30T03:46:59;102533.13;;;4.02;73.46
57668;BME280;43499;52.366;12.912;2024-01-30T03:48:00;102513.25;;;4.03;73.64
57668;BME280;43499;52.366;12.912;2024-01-30T03:49:02;102530.19;;;4.06;73.40
57668;BME280;43499;52.366;12.912;2024-01-30T03:50:03;102529.56;;;4.01;73.18
57668;BME280;43499;52.366;12.912;2024-01-30T03:51:05;102524.03;;;3.93;73.66
57668;BME280;43499;52.366;12.912;2024-01-30T03:52:06;102527.38;;;3.92;73.74
57668;BME280;43499;52.366;12.912;2024-01-30T03:53:07;102526.88;;;4.07;73.52
57668;BME280;43499;52.366;12.912;2024-01-30T03:54:08;102517.81;;;3.98;73.10
57668;BME280;43499;52.366;12.912;2024-01-30T03:55:10;102529.16;;;3.98;73.70
57668;BME280;43499;52.366;12.912;2024-01-30T03:56:11;102514.47;;;3.86;73.13
57668;BME280;43499;52.366;12.912;2024-01-30T03:57:13;102512.09;;;3.88;72.97
57668;BME280;43499;52.366;12.912;2024-01-30T03:58:14;102527.59;;;3.93;73.40
57668;BME280;43499;52.366;12.912;2024-01-30T03:59:15;102520.81;;;3.88;73.36
57668;BME280;43499;52.366;12.912;2024-01-30T04:00:18;102523.22;;;3.99;73.22
57668;BME280;43499;52.366;12.912;2024-01-30T04:01:19;102531.03;;;3.99;72.71
57668;BME280;43499;52.366;12.912;2024-01-30T04:02:20;102518.03;;;3.86;72.89
57668;BME280;43499;52.366;12.912;2024-01-30T04:03:21;102518.22;;;3.88;72.83
57668;BME280;43499;52.366;12.912;2024-01-30T04:04:22;102510.53;;;3.95;72.45
57668;BME280;43499;52.366;12.912;2024-01-30T04:05:23;102512.53;;;3.91;72.42
57668;BME280;43499;52.366;12.912;2024-01-30T04:06:26;102523.13;;;4.05;72.42
57668;BME280;43499;52.366;12.912;2024-01-30T04:07:27;102531.53;;;4.10;72.52
57668;BME280;43499;52.366;12.912;2024-01-30T04:08:28;102521.47;;;4.06;72.32
57668;BME280;43499;52.366;12.912;2024-01-30T04:09:29;102527.69;;;4.00;72.47
57668;BME280;43499;52.366;12.912;2024-01-30T04:10:30;102524.59;;;4.16;72.31
57668;BME280;43499;52.366;12.912;2024-01-30T04:11:31;102532.28;;;3.96;72.50
57668;BME280;43499;52.366;12.912;2024-01-30T04:12:32;102519.06;;;3.94;72.23
57668;BME280;43499;52.366;12.912;2024-01-30T04:13:33;102515.75;;;3.95;72.80
57668;BME280;43499;52.366;12.912;2024-01-30T04:14:34;102525.19;;;3.95;72.63
57668;BME280;43499;52.366;12.912;2024-01-30T04:15:36;102522.38;;;4.06;73.00
57668;BME280;43499;52.366;12.912;2024-01-30T04:16:37;102516.38;;;4.00;73.27
57668;BME280;43499;52.366;12.912;2024-01-30T04:17:38;102522.72;;;4.02;72.90
57668;BME280;43499;52.366;12.912;2024-01-30T04:18:39;102527.84;;;4.08;72.81
57668;BME280;43499;52.366;12.912;2024-01-30T04:19:40;102507.59;;;3.99;73.48
57668;BME280;43499;52.366;12.912;2024-01-30T04:20:41;102532.16;;;4.14;73.58
57668;BME280;43499;52.366;12.912;2024-01-30T04:21:42;102514.47;;;4.12;73.50
57668;BME280;43499;52.366;12.912;2024-01-30T04:22:44;102523.97;;;4.11;73.77
57668;BME280;43499;52.366;12.912;2024-01-30T04:23:45;102523.25;;;4.12;73.22
57668;BME280;43499;52.366;12.912;2024-01-30T04:24:46;102526.34;;;4.10;73.35
57668;BME280;43499;52.366;12.912;2024-01-30T04:25:47;102516.03;;;4.04;73.06
57668;BME280;43499;52.366;12.912;2024-01-30T04:26:48;102527.84;;;4.08;72.92
57668;BME280;43499;52.366;12.912;2024-01-30T04:27:49;102534.38;;;4.11;72.94
57668;BME280;43499;52.366;12.912;2024-01-30T04:28:50;102534.16;;;4.10;72.89
57668;BME280;43499;52.366;12.912;2024-01-30T04:29:51;102513.53;;;3.98;72.50
57668;BME280;43499;52.366;12.912;2024-01-30T04:30:52;102525.53;;;4.04;72.88
57668;BME280;43499;52.366;12.912;2024-01-30T04:31:54;102531.66;;;4.04;72.89
57668;BME280;43499;52.366;12.912;2024-01-30T04:32:55;102522.72;;;4.02;73.03
57668;BME280;43499;52.366;12.912;2024-01-30T04:33:56;102522.38;;;4.06;72.92
57668;BME280;43499;52.366;12.912;2024-01-30T04:34:58;102522.09;;;4.10;73.01
57668;BME280;43499;52.366;12.912;2024-01-30T04:35:59;102535.41;;;4.06;72.67
57668;BME280;43499;52.366;12.912;2024-01-30T04:37:00;102538.44;;;4.09;72.70
57668;BME280;43499;52.366;12.912;2024-01-30T04:38:01;102536.34;;;4.07;72.41
57668;BME280;43499;52.366;12.912;2024-01-30T04:39:02;102522.38;;;4.06;72.22
57668;BME280;43499;52.366;12.912;2024-01-30T04:40:05;102536.75;;;4.10;72.32
57668;BME280;43499;52.366;12.912;2024-01-30T04:41:06;102524.47;;;4.09;72.55
57668;BME280;43499;52.366;12.912;2024-01-30T04:42:07;102527.94;;;4.02;71.66
57668;BME280;43499;52.366;12.912;2024-01-30T04:43:08;102527.94;;;4.02;71.63
57668;BME280;43499;52.366;12.912;2024-01-30T04:44:09;102521.88;;;3.96;71.88
57668;BME280;43499;52.366;12.912;2024-01-30T04:45:11;102532.38;;;4.03;71.95
57668;BME280;43499;52.366;12.912;2024-01-30T04:46:12;102515.50;;;3.94;71.92
57668;BME280;43499;52.366;12.912;2024-01-30T04:47:13;102522.19;;;4.05;71.63
57668;BME280;43499;52.366;12.912;2024-01-30T04:48:14;102534.56;;;4.13;71.47
57668;BME280;43499;52.366;12.912;2024-01-30T04:49:15;102526.16;;;4.08;71.59
57668;BME280;43499;52.366;12.912;2024-01-30T04:50:16;102532.81;;;4.06;71.91
57668;BME280;43499;52.366;12.912;2024-01-30T04:51:17;102523.03;;;3.98;72.41
57668;BME280;43499;52.366;12.912;2024-01-30T04:52:18;102528.66;;;4.01;72.26
57668;BME280;43499;52.366;12.912;2024-01-30T04:53:19;102537.09;;;4.06;72.59
57668;BME280;43499;52.366;12.912;2024-01-30T04:54:20;102539.69;;;4.06;72.51
57668;BME280;43499;52.366;12.912;2024-01-30T04:55:21;102524.06;;;4.06;72.68
57668;BME280;43499;52.366;12.912;2024-01-30T04:56:22;102536.47;;;4.01;72.60
57668;BME280;43499;52.366;12.912;2024-01-30T04:57:23;102529.38;;;4.00;72.38
57668;BME280;43499;52.366;12.912;2024-01-30T04:58:24;102531.25;;;4.01;72.22
57668;BME280;43499;52.366;12.912;2024-01-30T04:59:26;102532.91;;;3.88;72.33
57668;BME280;43499;52.366;12.912;2024-01-30T05:00:26;102537.38;;;3.89;72.34
57668;BME280;43499;52.366;12.912;2024-01-30T05:01:28;102529.47;;;3.94;71.88
57668;BME280;43499;52.366;12.912;2024-01-30T05:02:29;102530.63;;;3.96;72.26
57668;BME280;43499;52.366;12.912;2024-01-30T05:03:33;102525.63;;;3.98;71.95
57668;BME280;43499;52.366;12.912;2024-01-30T05:04:34;102520.53;;;3.92;72.14
57668;BME280;43499;52.366;12.912;2024-01-30T05:05:35;102521.69;;;3.94;71.75
57668;BME280;43499;52.366;12.912;2024-01-30T05:06:37;102521.88;;;3.96;71.92
57668;BME280;43499;52.366;12.912;2024-01-30T05:07:40;102516.78;;;3.90;71.84
57668;BME280;43499;52.366;12.912;2024-01-30T05:08:41;102521.53;;;3.74;71.88
57668;BME280;43499;52.366;12.912;2024-01-30T05:09:42;102527.66;;;3.75;72.19
57668;BME280;43499;52.366;12.912;2024-01-30T05:10:43;102522.69;;;3.76;72.27
57668;BME280;43499;52.366;12.912;2024-01-30T05:11:45;102527.47;;;3.86;72.45
57668;BME280;43499;52.366;12.912;2024-01-30T05:12:46;102529.25;;;3.93;72.57
57668;BME280;43499;52.366;12.912;2024-01-30T05:13:47;102523.31;;;3.94;72.97
57668;BME280;43499;52.366;12.912;2024-01-30T05:14:48;102502.41;;;3.74;73.20
57668;BME280;43499;52.366;12.912;2024-01-30T05:15:49;102518.84;;;3.80;73.88
57668;BME280;43499;52.366;12.912;2024-01-30T05:16:50;102517.69;;;3.78;74.41
57668;BME280;43499;52.366;12.912;2024-01-30T05:17:51;102507.00;;;3.82;73.97
57668;BME280;43499;52.366;12.912;2024-01-30T05:18:52;102513.53;;;3.85;73.64
57668;BME280;43499;52.366;12.912;2024-01-30T05:19:53;102519.56;;;3.79;73.90
57668;BME280;43499;52.366;12.912;2024-01-30T05:20:54;102519.38;;;3.77;74.02